sensor_id;sensor_type;location;lat;lon;timestamp;P1;durP1;ratioP1;P2;durP2;ratioP2
52542;SDS011;38449;52.696;6.186;2023-02-04T00:01:58;36.97;;;7.00;;
52542;SDS011;38449;52.696;6.186;2023-02-04T00:04:25;34.03;;;6.20;;
52542;SDS011;38449;52.696;6.186;2023-02-04T00:06:51;41.90;;;6.63;;
52542;SDS011;38449;52.696;6.186;2023-02-04T00:09:17;31.75;;;6.30;;
52542;SDS011;38449;52.696;6.186;2023-02-04T00:11:44;33.78;;;5.68;;
52542;SDS011;38449;52.696;6.186;2023-02-04T00:14:10;36.80;;;6.45;;
52542;SDS011;38449;52.696;6.186;2023-02-04T00:16:37;41.72;;;6.63;;
52542;SDS011;38449;52.696;6.186;2023-02-04T00:19:03;38.50;;;6.95;;
52542;SDS011;38449;52.696;6.186;2023-02-04T00:21:31;34.45;;;6.15;;
52542;SDS011;38449;52.696;6.186;2023-02-04T00:23:57;29.10;;;6.80;;
52542;SDS011;38449;52.696;6.186;2023-02-04T00:26:23;37.03;;;6.22;;
52542;SDS011;38449;52.696;6.186;2023-02-04T00:28:50;34.05;;;7.03;;
52542;SDS011;38449;52.696;6.186;2023-02-04T00:31:16;39.35;;;7.18;;
52542;SDS011;38449;52.696;6.186;2023-02-04T00:33:42;36.97;;;7.15;;
52542;SDS011;38449;52.696;6.186;2023-02-04T00:36:08;40.03;;;6.15;;
52542;SDS011;38449;52.696;6.186;2023-02-04T00:38:35;30.45;;;5.95;;
52542;SDS011;38449;52.696;6.186;2023-02-04T00:41:01;30.33;;;6.13;;
52542;SDS011;38449;52.696;6.186;2023-02-04T00:43:27;35.85;;;6.50;;
52542;SDS011;38449;52.696;6.186;2023-02-04T00:45:53;33.13;;;6.82;;
52542;SDS011;38449;52.696;6.186;2023-02-04T00:48:20;32.67;;;6.43;;
52542;SDS011;38449;52.696;6.186;2023-02-04T00:50:46;35.95;;;6.20;;
52542;SDS011;38449;52.696;6.186;2023-02-04T00:53:12;29.92;;;5.93;;
52542;SDS011;38449;52.696;6.186;2023-02-04T00:55:38;30.55;;;5.88;;
52542;SDS011;38449;52.696;6.186;2023-02-04T00:58:05;31.15;;;6.57;;
52542;SDS011;38449;52.696;6.186;2023-02-04T01:00:31;33.65;;;6.18;;
52542;SDS011;38449;52.696;6.186;2023-02-04T01:02:57;33.97;;;6.32;;
52542;SDS011;38449;52.696;6.186;2023-02-04T01:05:24;35.10;;;6.03;;
52542;SDS011;38449;52.696;6.186;2023-02-04T01:07:50;31.20;;;6.03;;
52542;SDS011;38449;52.696;6.186;2023-02-04T01:10:17;41.55;;;7.00;;
52542;SDS011;38449;52.696;6.186;2023-02-04T01:12:43;35.35;;;6.70;;
52542;SDS011;38449;52.696;6.186;2023-02-04T01:15:10;32.72;;;6.32;;
52542;SDS011;38449;52.696;6.186;2023-02-04T01:17:36;30.75;;;6.35;;
52542;SDS011;38449;52.696;6.186;2023-02-04T01:20:03;32.33;;;5.75;;
52542;SDS011;38449;52.696;6.186;2023-02-04T01:22:30;37.28;;;6.63;;
52542;SDS011;38449;52.696;6.186;2023-02-04T01:24:57;31.55;;;6.38;;
52542;SDS011;38449;52.696;6.186;2023-02-04T01:27:23;34.08;;;5.82;;
52542;SDS011;38449;52.696;6.186;2023-02-04T01:29:50;35.05;;;6.63;;
52542;SDS011;38449;52.696;6.186;2023-02-04T01:32:16;33.85;;;5.55;;
52542;SDS011;38449;52.696;6.186;2023-02-04T01:34:42;31.30;;;6.07;;
52542;SDS011;38449;52.696;6.186;2023-02-04T01:37:08;32.00;;;5.72;;
52542;SDS011;38449;52.696;6.186;2023-02-04T01:39:35;32.35;;;6.28;;
52542;SDS011;38449;52.696;6.186;2023-02-04T01:42:02;36.08;;;5.63;;
52542;SDS011;38449;52.696;6.186;2023-02-04T01:44:28;29.42;;;6.00;;
52542;SDS011;38449;52.696;6.186;2023-02-04T01:46:55;35.72;;;6.78;;
52542;SDS011;38449;52.696;6.186;2023-02-04T01:49:22;30.38;;;5.82;;
52542;SDS011;38449;52.696;6.186;2023-02-04T01:51:49;38.50;;;6.38;;
52542;SDS011;38449;52.696;6.186;2023-02-04T01:54:15;39.15;;;6.45;;
52542;SDS011;38449;52.696;6.186;2023-02-04T01:56:43;28.02;;;5.40;;
52542;SDS011;38449;52.696;6.186;2023-02-04T01:59:12;42.75;;;6.07;;
52542;SDS011;38449;52.696;6.186;2023-02-04T02:01:50;37.38;;;5.90;;
52542;SDS011;38449;52.696;6.186;2023-02-04T02:04:19;33.35;;;6.68;;
52542;SDS011;38449;52.696;6.186;2023-02-04T02:06:54;34.78;;;6.05;;
52542;SDS011;38449;52.696;6.186;2023-02-04T02:09:24;38.97;;;6.60;;
52542;SDS011;38449;52.696;6.186;2023-02-04T02:11:51;40.55;;;5.63;;
52542;SDS011;38449;52.696;6.186;2023-02-04T02:14:18;34.17;;;6.07;;
52542;SDS011;38449;52.696;6.186;2023-02-04T02:16:44;33.30;;;5.95;;
52542;SDS011;38449;52.696;6.186;2023-02-04T02:19:11;38.13;;;5.95;;
52542;SDS011;38449;52.696;6.186;2023-02-04T02:21:53;30.85;;;5.93;;
52542;SDS011;38449;52.696;6.186;2023-02-04T02:24:28;43.13;;;6.82;;
52542;SDS011;38449;52.696;6.186;2023-02-04T02:26:56;38.60;;;6.22;;
52542;SDS011;38449;52.696;6.186;2023-02-04T02:29:27;32.25;;;6.55;;
52542;SDS011;38449;52.696;6.186;2023-02-04T02:31:53;33.67;;;5.80;;
52542;SDS011;38449;52.696;6.186;2023-02-04T02:34:23;39.67;;;6.28;;
52542;SDS011;38449;52.696;6.186;2023-02-04T02:36:51;32.25;;;6.60;;
52542;SDS011;38449;52.696;6.186;2023-02-04T02:39:18;32.85;;;5.70;;
52542;SDS011;38449;52.696;6.186;2023-02-04T02:41:45;33.72;;;6.55;;
52542;SDS011;38449;52.696;6.186;2023-02-04T02:44:11;35.70;;;6.15;;
52542;SDS011;38449;52.696;6.186;2023-02-04T02:46:39;28.30;;;5.72;;
52542;SDS011;38449;52.696;6.186;2023-02-04T02:49:05;36.55;;;6.05;;
52542;SDS011;38449;52.696;6.186;2023-02-04T02:51:36;30.33;;;5.90;;
52542;SDS011;38449;52.696;6.186;2023-02-04T02:54:03;36.90;;;6.05;;
52542;SDS011;38449;52.696;6.186;2023-02-04T02:56:29;32.03;;;5.88;;
52542;SDS011;38449;52.696;6.186;2023-02-04T02:58:55;29.63;;;5.80;;
52542;SDS011;38449;52.696;6.186;2023-02-04T03:01:21;36.22;;;6.25;;
52542;SDS011;38449;52.696;6.186;2023-02-04T03:03:48;32.63;;;6.15;;
52542;SDS011;38449;52.696;6.186;2023-02-04T03:06:18;34.97;;;6.22;;
52542;SDS011;38449;52.696;6.186;2023-02-04T03:08:48;37.70;;;6.78;;
52542;SDS011;38449;52.696;6.186;2023-02-04T03:11:16;30.35;;;5.75;;
52542;SDS011;38449;52.696;6.186;2023-02-04T03:13:42;40.78;;;6.60;;
52542;SDS011;38449;52.696;6.186;2023-02-04T03:16:10;35.72;;;7.00;;
52542;SDS011;38449;52.696;6.186;2023-02-04T03:18:37;35.72;;;6.60;;
52542;SDS011;38449;52.696;6.186;2023-02-04T03:21:03;37.45;;;6.25;;
52542;SDS011;38449;52.696;6.186;2023-02-04T03:23:34;31.45;;;5.60;;
52542;SDS011;38449;52.696;6.186;2023-02-04T03:26:01;41.67;;;6.35;;
52542;SDS011;38449;52.696;6.186;2023-02-04T03:28:28;38.08;;;6.07;;
52542;SDS011;38449;52.696;6.186;2023-02-04T03:30:56;38.05;;;6.85;;
52542;SDS011;38449;52.696;6.186;2023-02-04T03:33:23;29.27;;;5.70;;
52542;SDS011;38449;52.696;6.186;2023-02-04T03:35:52;27.98;;;5.35;;
52542;SDS011;38449;52.696;6.186;2023-02-04T03:38:19;38.42;;;6.90;;
52542;SDS011;38449;52.696;6.186;2023-02-04T03:40:45;38.83;;;6.40;;
52542;SDS011;38449;52.696;6.186;2023-02-04T03:43:13;38.63;;;6.82;;
52542;SDS011;38449;52.696;6.186;2023-02-04T03:45:39;37.47;;;6.25;;
52542;SDS011;38449;52.696;6.186;2023-02-04T03:48:05;40.17;;;6.60;;
52542;SDS011;38449;52.696;6.186;2023-02-04T03:50:32;35.67;;;6.47;;
52542;SDS011;38449;52.696;6.186;2023-02-04T03:52:58;31.02;;;6.30;;
52542;SDS011;38449;52.696;6.186;2023-02-04T03:55:24;41.35;;;6.72;;
52542;SDS011;38449;52.696;6.186;2023-02-04T03:57:51;40.22;;;6.80;;
52542;SDS011;38449;52.696;6.186;2023-02-04T04:00:18;28.77;;;6.45;;
52542;SDS011;38449;52.696;6.186;2023-02-04T04:02:46;34.25;;;6.10;;
52542;SDS011;38449;52.696;6.186;2023-02-04T04:05:12;45.15;;;6.47;;
52542;SDS011;38449;52.696;6.186;2023-02-04T04:07:38;35.53;;;6.10;;
52542;SDS011;38449;52.696;6.186;2023-02-04T04:10:04;38.97;;;6.18;;
52542;SDS011;38449;52.696;6.186;2023-02-04T04:12:31;32.70;;;5.93;;
52542;SDS011;38449;52.696;6.186;2023-02-04T04:14:57;36.90;;;6.13;;
52542;SDS011;38449;52.696;6.186;2023-02-04T04:17:23;37.67;;;6.18;;
52542;SDS011;38449;52.696;6.186;2023-02-04T04:19:50;40.20;;;6.32;;
52542;SDS011;38449;52.696;6.186;2023-02-04T04:22:16;33.53;;;5.80;;
52542;SDS011;38449;52.696;6.186;2023-02-04T04:24:42;29.73;;;6.38;;
52542;SDS011;38449;52.696;6.186;2023-02-04T04:27:08;28.35;;;5.57;;
52542;SDS011;38449;52.696;6.186;2023-02-04T04:29:34;27.73;;;5.40;;
52542;SDS011;38449;52.696;6.186;2023-02-04T04:32:01;35.92;;;5.95;;
52542;SDS011;38449;52.696;6.186;2023-02-04T04:34:27;37.50;;;5.53;;
52542;SDS011;38449;52.696;6.186;2023-02-04T04:36:53;26.60;;;5.43;;
52542;SDS011;38449;52.696;6.186;2023-02-04T04:39:19;38.30;;;6.45;;
52542;SDS011;38449;52.696;6.186;2023-02-04T04:41:46;35.70;;;6.03;;
52542;SDS011;38449;52.696;6.186;2023-02-04T04:44:13;34.55;;;5.57;;
52542;SDS011;38449;52.696;6.186;2023-02-04T04:46:39;27.50;;;5.47;;
52542;SDS011;38449;52.696;6.186;2023-02-04T04:49:05;36.67;;;6.07;;
52542;SDS011;38449;52.696;6.186;2023-02-04T04:51:32;38.63;;;6.50;;
52542;SDS011;38449;52.696;6.186;2023-02-04T04:53:58;29.92;;;5.60;;
52542;SDS011;38449;52.696;6.186;2023-02-04T04:56:24;35.15;;;5.93;;
52542;SDS011;38449;52.696;6.186;2023-02-04T04:58:51;37.38;;;6.13;;
52542;SDS011;38449;52.696;6.186;2023-02-04T05:01:17;33.50;;;6.25;;
52542;SDS011;38449;52.696;6.186;2023-02-04T05:03:43;31.60;;;5.78;;
52542;SDS011;38449;52.696;6.186;2023-02-04T05:06:09;44.10;;;6.20;;
52542;SDS011;38449;52.696;6.186;2023-02-04T05:08:37;38.67;;;6.75;;
52542;SDS011;38449;52.696;6.186;2023-02-04T05:11:03;34.15;;;6.07;;
52542;SDS011;38449;52.696;6.186;2023-02-04T05:13:30;31.25;;;5.70;;
52542;SDS011;38449;52.696;6.186;2023-02-04T05:15:56;33.78;;;5.78;;
52542;SDS011;38449;52.696;6.186;2023-02-04T05:18:22;29.88;;;5.78;;
52542;SDS011;38449;52.696;6.186;2023-02-04T05:20:50;33.80;;;5.82;;
52542;SDS011;38449;52.696;6.186;2023-02-04T05:23:18;34.92;;;6.70;;
52542;SDS011;38449;52.696;6.186;2023-02-04T05:25:45;33.70;;;5.63;;
52542;SDS011;38449;52.696;6.186;2023-02-04T05:28:11;33.28;;;5.05;;
52542;SDS011;38449;52.696;6.186;2023-02-04T05:30:37;36.90;;;6.45;;
52542;SDS011;38449;52.696;6.186;2023-02-04T05:33:03;34.38;;;5.97;;
52542;SDS011;38449;52.696;6.186;2023-02-04T05:35:30;41.72;;;6.35;;
52542;SDS011;38449;52.696;6.186;2023-02-04T05:37:56;27.42;;;6.05;;
52542;SDS011;38449;52.696;6.186;2023-02-04T05:40:22;33.33;;;6.70;;
52542;SDS011;38449;52.696;6.186;2023-02-04T05:42:48;33.47;;;5.30;;
52542;SDS011;38449;52.696;6.186;2023-02-04T05:45:15;28.20;;;5.85;;
52542;SDS011;38449;52.696;6.186;2023-02-04T05:47:43;39.67;;;6.75;;
52542;SDS011;38449;52.696;6.186;2023-02-04T05:50:09;32.38;;;5.45;;
52542;SDS011;38449;52.696;6.186;2023-02-04T05:52:36;37.83;;;6.65;;
52542;SDS011;38449;52.696;6.186;2023-02-04T05:55:02;33.88;;;5.43;;
52542;SDS011;38449;52.696;6.186;2023-02-04T05:57:29;38.13;;;6.38;;
52542;SDS011;38449;52.696;6.186;2023-02-04T05:59:55;30.13;;;5.70;;
52542;SDS011;38449;52.696;6.186;2023-02-04T06:02:21;30.55;;;6.05;;
52542;SDS011;38449;52.696;6.186;2023-02-04T06:04:48;32.58;;;6.57;;
52542;SDS011;38449;52.696;6.186;2023-02-04T06:07:14;29.88;;;5.65;;
52542;SDS011;38449;52.696;6.186;2023-02-04T06:09:40;28.92;;;5.40;;
52542;SDS011;38449;52.696;6.186;2023-02-04T06:12:07;31.88;;;6.22;;
52542;SDS011;38449;52.696;6.186;2023-02-04T06:14:38;48.15;;;6.38;;
52542;SDS011;38449;52.696;6.186;2023-02-04T06:17:05;29.58;;;4.80;;
52542;SDS011;38449;52.696;6.186;2023-02-04T06:19:32;43.50;;;7.72;;
52542;SDS011;38449;52.696;6.186;2023-02-04T06:21:58;34.10;;;6.13;;
52542;SDS011;38449;52.696;6.186;2023-02-04T06:24:24;38.83;;;6.93;;
52542;SDS011;38449;52.696;6.186;2023-02-04T06:26:50;35.53;;;7.07;;
52542;SDS011;38449;52.696;6.186;2023-02-04T06:29:17;31.48;;;5.78;;
52542;SDS011;38449;52.696;6.186;2023-02-04T06:31:43;35.90;;;5.75;;
52542;SDS011;38449;52.696;6.186;2023-02-04T06:34:09;35.78;;;6.18;;
52542;SDS011;38449;52.696;6.186;2023-02-04T06:36:35;27.70;;;6.03;;
52542;SDS011;38449;52.696;6.186;2023-02-04T06:39:02;36.95;;;7.45;;
52542;SDS011;38449;52.696;6.186;2023-02-04T06:41:28;29.42;;;5.50;;
52542;SDS011;38449;52.696;6.186;2023-02-04T06:43:54;33.15;;;6.07;;
52542;SDS011;38449;52.696;6.186;2023-02-04T06:46:20;36.55;;;6.70;;
52542;SDS011;38449;52.696;6.186;2023-02-04T06:48:47;30.35;;;5.65;;
52542;SDS011;38449;52.696;6.186;2023-02-04T06:51:13;38.60;;;6.80;;
52542;SDS011;38449;52.696;6.186;2023-02-04T06:53:39;33.85;;;5.95;;
52542;SDS011;38449;52.696;6.186;2023-02-04T06:56:09;28.45;;;6.20;;
52542;SDS011;38449;52.696;6.186;2023-02-04T06:58:36;35.88;;;7.05;;
52542;SDS011;38449;52.696;6.186;2023-02-04T07:01:02;26.35;;;6.00;;
52542;SDS011;38449;52.696;6.186;2023-02-04T07:03:29;35.30;;;6.53;;
52542;SDS011;38449;52.696;6.186;2023-02-04T07:05:55;34.90;;;7.03;;
52542;SDS011;38449;52.696;6.186;2023-02-04T07:08:21;36.42;;;6.45;;
52542;SDS011;38449;52.696;6.186;2023-02-04T07:10:47;35.67;;;6.88;;
52542;SDS011;38449;52.696;6.186;2023-02-04T07:13:14;35.60;;;6.53;;
52542;SDS011;38449;52.696;6.186;2023-02-04T07:15:40;29.58;;;6.82;;
52542;SDS011;38449;52.696;6.186;2023-02-04T07:18:06;37.13;;;5.95;;
52542;SDS011;38449;52.696;6.186;2023-02-04T07:20:33;33.00;;;6.00;;
52542;SDS011;38449;52.696;6.186;2023-02-04T07:22:59;32.65;;;6.07;;
52542;SDS011;38449;52.696;6.186;2023-02-04T07:25:26;32.33;;;6.40;;
52542;SDS011;38449;52.696;6.186;2023-02-04T07:27:52;37.88;;;7.38;;
52542;SDS011;38449;52.696;6.186;2023-02-04T07:30:23;35.53;;;14.95;;
52542;SDS011;38449;52.696;6.186;2023-02-04T07:32:50;34.63;;;12.68;;
52542;SDS011;38449;52.696;6.186;2023-02-04T07:35:16;39.13;;;10.85;;
52542;SDS011;38449;52.696;6.186;2023-02-04T07:37:42;32.67;;;8.70;;
52542;SDS011;38449;52.696;6.186;2023-02-04T07:40:10;28.00;;;7.55;;
52542;SDS011;38449;52.696;6.186;2023-02-04T07:42:37;33.40;;;5.90;;
52542;SDS011;38449;52.696;6.186;2023-02-04T07:45:03;31.02;;;6.60;;
52542;SDS011;38449;52.696;6.186;2023-02-04T07:47:29;36.65;;;6.35;;
52542;SDS011;38449;52.696;6.186;2023-02-04T07:49:56;38.80;;;6.47;;
52542;SDS011;38449;52.696;6.186;2023-02-04T07:52:25;35.25;;;5.90;;
52542;SDS011;38449;52.696;6.186;2023-02-04T07:54:51;34.92;;;6.50;;
52542;SDS011;38449;52.696;6.186;2023-02-04T07:57:20;40.45;;;7.22;;
52542;SDS011;38449;52.696;6.186;2023-02-04T07:59:47;37.70;;;6.22;;
52542;SDS011;38449;52.696;6.186;2023-02-04T08:02:13;37.40;;;6.68;;
52542;SDS011;38449;52.696;6.186;2023-02-04T08:04:39;36.30;;;6.78;;
52542;SDS011;38449;52.696;6.186;2023-02-04T08:07:06;33.03;;;5.88;;
52542;SDS011;38449;52.696;6.186;2023-02-04T08:09:32;30.25;;;6.68;;
52542;SDS011;38449;52.696;6.186;2023-02-04T08:11:58;33.05;;;6.13;;
52542;SDS011;38449;52.696;6.186;2023-02-04T08:14:25;47.25;;;7.65;;
52542;SDS011;38449;52.696;6.186;2023-02-04T08:16:51;34.42;;;7.10;;
52542;SDS011;38449;52.696;6.186;2023-02-04T08:19:17;36.10;;;7.40;;
52542;SDS011;38449;52.696;6.186;2023-02-04T08:21:46;48.85;;;7.50;;
52542;SDS011;38449;52.696;6.186;2023-02-04T08:24:16;33.00;;;7.40;;
52542;SDS011;38449;52.696;6.186;2023-02-04T08:26:42;32.13;;;6.25;;
52542;SDS011;38449;52.696;6.186;2023-02-04T08:29:09;36.10;;;6.55;;
52542;SDS011;38449;52.696;6.186;2023-02-04T08:31:35;31.48;;;6.93;;
52542;SDS011;38449;52.696;6.186;2023-02-04T08:34:03;33.97;;;7.38;;
52542;SDS011;38449;52.696;6.186;2023-02-04T08:36:31;30.05;;;6.57;;
52542;SDS011;38449;52.696;6.186;2023-02-04T08:38:58;24.50;;;6.53;;
52542;SDS011;38449;52.696;6.186;2023-02-04T08:41:24;35.15;;;7.10;;
52542;SDS011;38449;52.696;6.186;2023-02-04T08:43:50;27.63;;;6.43;;
52542;SDS011;38449;52.696;6.186;2023-02-04T08:46:16;33.72;;;6.88;;
52542;SDS011;38449;52.696;6.186;2023-02-04T08:48:43;29.17;;;7.28;;
52542;SDS011;38449;52.696;6.186;2023-02-04T08:51:09;34.08;;;5.85;;
52542;SDS011;38449;52.696;6.186;2023-02-04T08:53:35;30.85;;;6.65;;
52542;SDS011;38449;52.696;6.186;2023-02-04T08:56:02;40.05;;;7.90;;
52542;SDS011;38449;52.696;6.186;2023-02-04T08:58:28;40.20;;;6.80;;
52542;SDS011;38449;52.696;6.186;2023-02-04T09:00:55;33.33;;;6.57;;
52542;SDS011;38449;52.696;6.186;2023-02-04T09:03:26;44.60;;;8.10;;
52542;SDS011;38449;52.696;6.186;2023-02-04T09:05:52;69.03;;;9.32;;
52542;SDS011;38449;52.696;6.186;2023-02-04T09:08:18;56.58;;;9.73;;
52542;SDS011;38449;52.696;6.186;2023-02-04T09:10:45;50.78;;;7.25;;
52542;SDS011;38449;52.696;6.186;2023-02-04T09:13:11;35.35;;;7.28;;
52542;SDS011;38449;52.696;6.186;2023-02-04T09:15:39;41.65;;;6.88;;
52542;SDS011;38449;52.696;6.186;2023-02-04T09:18:05;38.10;;;7.85;;
52542;SDS011;38449;52.696;6.186;2023-02-04T09:23:06;28.55;;;5.20;;
52542;SDS011;38449;52.696;6.186;2023-02-04T09:25:34;27.52;;;5.55;;
52542;SDS011;38449;52.696;6.186;2023-02-04T09:28:01;34.13;;;5.22;;
52542;SDS011;38449;52.696;6.186;2023-02-04T09:30:27;30.27;;;6.00;;
52542;SDS011;38449;52.696;6.186;2023-02-04T09:32:53;30.60;;;5.68;;
52542;SDS011;38449;52.696;6.186;2023-02-04T09:35:19;31.77;;;5.80;;
52542;SDS011;38449;52.696;6.186;2023-02-04T09:37:45;29.60;;;4.95;;
52542;SDS011;38449;52.696;6.186;2023-02-04T09:40:15;23.15;;;4.85;;
52542;SDS011;38449;52.696;6.186;2023-02-04T09:42:43;24.75;;;5.32;;
52542;SDS011;38449;52.696;6.186;2023-02-04T09:45:16;21.08;;;4.20;;
52542;SDS011;38449;52.696;6.186;2023-02-04T09:47:45;21.67;;;3.78;;
52542;SDS011;38449;52.696;6.186;2023-02-04T09:50:15;17.88;;;4.20;;
52542;SDS011;38449;52.696;6.186;2023-02-04T09:52:43;23.05;;;4.90;;
52542;SDS011;38449;52.696;6.186;2023-02-04T09:55:12;18.92;;;4.30;;
52542;SDS011;38449;52.696;6.186;2023-02-04T09:57:40;19.20;;;4.20;;
52542;SDS011;38449;52.696;6.186;2023-02-04T10:00:16;22.85;;;3.95;;
52542;SDS011;38449;52.696;6.186;2023-02-04T10:02:48;25.10;;;4.63;;
52542;SDS011;38449;52.696;6.186;2023-02-04T10:05:16;25.90;;;4.68;;
52542;SDS011;38449;52.696;6.186;2023-02-04T10:07:44;26.65;;;5.22;;
52542;SDS011;38449;52.696;6.186;2023-02-04T10:10:21;22.17;;;4.22;;
52542;SDS011;38449;52.696;6.186;2023-02-04T10:12:50;34.50;;;5.88;;
52542;SDS011;38449;52.696;6.186;2023-02-04T10:15:22;29.00;;;4.38;;
52542;SDS011;38449;52.696;6.186;2023-02-04T10:17:50;25.95;;;5.13;;
52542;SDS011;38449;52.696;6.186;2023-02-04T10:20:19;21.27;;;4.63;;
52542;SDS011;38449;52.696;6.186;2023-02-04T10:22:50;15.82;;;4.57;;
52542;SDS011;38449;52.696;6.186;2023-02-04T10:25:19;14.48;;;3.78;;
52542;SDS011;38449;52.696;6.186;2023-02-04T10:27:48;18.92;;;4.18;;
52542;SDS011;38449;52.696;6.186;2023-02-04T10:30:57;21.40;;;4.43;;
52542;SDS011;38449;52.696;6.186;2023-02-04T10:33:13;24.38;;;4.63;;
52542;SDS011;38449;52.696;6.186;2023-02-04T10:35:48;17.85;;;4.03;;
52542;SDS011;38449;52.696;6.186;2023-02-04T10:38:17;18.42;;;4.55;;
52542;SDS011;38449;52.696;6.186;2023-02-04T10:40:45;20.20;;;4.20;;
52542;SDS011;38449;52.696;6.186;2023-02-04T10:43:15;14.57;;;3.95;;
52542;SDS011;38449;52.696;6.186;2023-02-04T10:45:44;16.45;;;3.60;;
52542;SDS011;38449;52.696;6.186;2023-02-04T10:48:16;18.05;;;4.22;;
52542;SDS011;38449;52.696;6.186;2023-02-04T10:50:43;21.50;;;4.32;;
52542;SDS011;38449;52.696;6.186;2023-02-04T10:53:12;13.63;;;3.53;;
52542;SDS011;38449;52.696;6.186;2023-02-04T10:56:14;17.23;;;3.92;;
52542;SDS011;38449;52.696;6.186;2023-02-04T10:58:42;20.77;;;4.30;;
52542;SDS011;38449;52.696;6.186;2023-02-04T11:01:13;16.42;;;3.17;;
52542;SDS011;38449;52.696;6.186;2023-02-04T11:03:40;17.20;;;4.22;;
52542;SDS011;38449;52.696;6.186;2023-02-04T11:06:11;15.30;;;4.22;;
52542;SDS011;38449;52.696;6.186;2023-02-04T11:08:41;17.65;;;4.25;;
52542;SDS011;38449;52.696;6.186;2023-02-04T11:11:13;20.20;;;5.10;;
52542;SDS011;38449;52.696;6.186;2023-02-04T11:21:13;16.85;;;4.22;;
52542;SDS011;38449;52.696;6.186;2023-02-04T11:23:46;16.42;;;3.75;;
52542;SDS011;38449;52.696;6.186;2023-02-04T11:26:13;17.92;;;4.15;;
52542;SDS011;38449;52.696;6.186;2023-02-04T11:28:55;20.05;;;4.20;;
52542;SDS011;38449;52.696;6.186;2023-02-04T11:33:49;18.48;;;4.35;;
52542;SDS011;38449;52.696;6.186;2023-02-04T11:36:26;14.93;;;4.03;;
52542;SDS011;38449;52.696;6.186;2023-02-04T11:38:54;19.60;;;4.35;;
52542;SDS011;38449;52.696;6.186;2023-02-04T11:41:22;15.75;;;3.60;;
52542;SDS011;38449;52.696;6.186;2023-02-04T11:43:52;21.38;;;4.07;;
52542;SDS011;38449;52.696;6.186;2023-02-04T11:46:20;15.52;;;3.92;;
52542;SDS011;38449;52.696;6.186;2023-02-04T11:48:51;18.67;;;3.88;;
52542;SDS011;38449;52.696;6.186;2023-02-04T11:51:19;19.10;;;4.00;;
52542;SDS011;38449;52.696;6.186;2023-02-04T11:53:52;16.23;;;3.58;;
52542;SDS011;38449;52.696;6.186;2023-02-04T11:56:18;18.23;;;4.43;;
52542;SDS011;38449;52.696;6.186;2023-02-04T11:58:47;16.35;;;4.10;;
52542;SDS011;38449;52.696;6.186;2023-02-04T12:01:28;14.52;;;4.00;;
52542;SDS011;38449;52.696;6.186;2023-02-04T12:03:56;17.77;;;4.15;;
52542;SDS011;38449;52.696;6.186;2023-02-04T12:06:27;15.45;;;3.65;;
52542;SDS011;38449;52.696;6.186;2023-02-04T12:09:05;15.68;;;3.83;;
52542;SDS011;38449;52.696;6.186;2023-02-04T12:11:32;19.60;;;4.15;;
52542;SDS011;38449;52.696;6.186;2023-02-04T12:14:07;15.15;;;4.07;;
52542;SDS011;38449;52.696;6.186;2023-02-04T12:16:47;15.23;;;4.20;;
52542;SDS011;38449;52.696;6.186;2023-02-04T12:19:18;17.83;;;4.28;;
52542;SDS011;38449;52.696;6.186;2023-02-04T12:21:44;17.60;;;3.90;;
52542;SDS011;38449;52.696;6.186;2023-02-04T12:24:10;16.25;;;3.60;;
52542;SDS011;38449;52.696;6.186;2023-02-04T12:26:37;14.10;;;3.55;;
52542;SDS011;38449;52.696;6.186;2023-02-04T12:29:03;16.83;;;3.88;;
52542;SDS011;38449;52.696;6.186;2023-02-04T12:31:30;17.15;;;4.35;;
52542;SDS011;38449;52.696;6.186;2023-02-04T12:33:58;12.75;;;3.33;;
52542;SDS011;38449;52.696;6.186;2023-02-04T12:36:24;16.05;;;3.72;;
52542;SDS011;38449;52.696;6.186;2023-02-04T12:38:52;13.50;;;3.53;;
52542;SDS011;38449;52.696;6.186;2023-02-04T12:41:18;15.60;;;3.50;;
52542;SDS011;38449;52.696;6.186;2023-02-04T12:43:45;17.10;;;4.28;;
52542;SDS011;38449;52.696;6.186;2023-02-04T12:46:15;14.70;;;3.58;;
52542;SDS011;38449;52.696;6.186;2023-02-04T12:48:41;11.30;;;3.10;;
52542;SDS011;38449;52.696;6.186;2023-02-04T12:51:08;15.45;;;3.65;;
52542;SDS011;38449;52.696;6.186;2023-02-04T12:53:34;15.13;;;3.50;;
52542;SDS011;38449;52.696;6.186;2023-02-04T12:56:01;14.77;;;3.83;;
52542;SDS011;38449;52.696;6.186;2023-02-04T12:58:27;16.13;;;3.50;;
52542;SDS011;38449;52.696;6.186;2023-02-04T13:00:53;12.07;;;3.55;;
52542;SDS011;38449;52.696;6.186;2023-02-04T13:03:19;13.48;;;3.63;;
52542;SDS011;38449;52.696;6.186;2023-02-04T13:05:47;13.00;;;3.10;;
52542;SDS011;38449;52.696;6.186;2023-02-04T13:08:13;13.13;;;3.38;;
52542;SDS011;38449;52.696;6.186;2023-02-04T13:10:40;14.27;;;3.67;;
52542;SDS011;38449;52.696;6.186;2023-02-04T13:13:06;12.05;;;3.10;;
52542;SDS011;38449;52.696;6.186;2023-02-04T13:15:32;15.93;;;3.92;;
52542;SDS011;38449;52.696;6.186;2023-02-04T13:17:58;16.70;;;3.55;;
52542;SDS011;38449;52.696;6.186;2023-02-04T13:20:25;11.20;;;3.30;;
52542;SDS011;38449;52.696;6.186;2023-02-04T13:22:51;13.65;;;3.78;;
52542;SDS011;38449;52.696;6.186;2023-02-04T13:25:17;12.35;;;3.65;;
52542;SDS011;38449;52.696;6.186;2023-02-04T13:27:43;15.93;;;4.03;;
52542;SDS011;38449;52.696;6.186;2023-02-04T13:30:10;13.55;;;3.45;;
52542;SDS011;38449;52.696;6.186;2023-02-04T13:32:38;14.30;;;3.30;;
52542;SDS011;38449;52.696;6.186;2023-02-04T13:35:05;14.10;;;3.70;;
52542;SDS011;38449;52.696;6.186;2023-02-04T13:37:32;19.02;;;3.83;;
52542;SDS011;38449;52.696;6.186;2023-02-04T13:39:58;14.38;;;3.13;;
52542;SDS011;38449;52.696;6.186;2023-02-04T13:42:24;21.55;;;4.28;;
52542;SDS011;38449;52.696;6.186;2023-02-04T13:44:51;17.30;;;3.75;;
52542;SDS011;38449;52.696;6.186;2023-02-04T13:47:18;14.45;;;3.83;;
52542;SDS011;38449;52.696;6.186;2023-02-04T13:49:44;16.35;;;3.88;;
52542;SDS011;38449;52.696;6.186;2023-02-04T13:52:11;17.73;;;3.55;;
52542;SDS011;38449;52.696;6.186;2023-02-04T13:54:37;18.17;;;4.10;;
52542;SDS011;38449;52.696;6.186;2023-02-04T13:57:03;17.00;;;3.78;;
52542;SDS011;38449;52.696;6.186;2023-02-04T13:59:30;12.20;;;3.25;;
52542;SDS011;38449;52.696;6.186;2023-02-04T14:01:57;15.45;;;3.70;;
52542;SDS011;38449;52.696;6.186;2023-02-04T14:04:23;15.52;;;4.03;;
52542;SDS011;38449;52.696;6.186;2023-02-04T14:06:51;16.58;;;3.97;;
52542;SDS011;38449;52.696;6.186;2023-02-04T14:09:19;19.35;;;3.97;;
52542;SDS011;38449;52.696;6.186;2023-02-04T14:11:46;17.48;;;3.78;;
52542;SDS011;38449;52.696;6.186;2023-02-04T14:14:12;18.40;;;4.25;;
52542;SDS011;38449;52.696;6.186;2023-02-04T14:16:39;16.80;;;3.88;;
52542;SDS011;38449;52.696;6.186;2023-02-04T14:19:05;15.00;;;3.25;;
52542;SDS011;38449;52.696;6.186;2023-02-04T14:21:32;16.77;;;3.97;;
52542;SDS011;38449;52.696;6.186;2023-02-04T14:23:58;18.50;;;3.47;;
52542;SDS011;38449;52.696;6.186;2023-02-04T14:26:24;17.20;;;3.10;;
52542;SDS011;38449;52.696;6.186;2023-02-04T14:28:50;16.15;;;3.42;;
52542;SDS011;38449;52.696;6.186;2023-02-04T14:31:17;18.58;;;3.85;;
52542;SDS011;38449;52.696;6.186;2023-02-04T14:33:43;19.23;;;3.28;;
52542;SDS011;38449;52.696;6.186;2023-02-04T14:36:10;14.13;;;3.35;;
52542;SDS011;38449;52.696;6.186;2023-02-04T14:38:36;21.63;;;4.45;;
52542;SDS011;38449;52.696;6.186;2023-02-04T14:41:03;15.10;;;4.25;;
52542;SDS011;38449;52.696;6.186;2023-02-04T14:43:30;14.40;;;3.50;;
52542;SDS011;38449;52.696;6.186;2023-02-04T14:46:04;17.33;;;3.72;;
52542;SDS011;38449;52.696;6.186;2023-02-04T14:48:30;14.13;;;3.92;;